Time;durP1;ratioP1;P1;durP2;ratioP2;P2;SDS_P1;SDS_P2;PMS_P1;PMS_P2;Temp;Humidity;BMP_temperature;BMP_pressure;BME280_temperature;BME280_humidity;BME280_pressure;Samples;Min_cycle;Max_cycle;Signal;HPM_P1;HPM_P2
2022/01/25 00:15:03;;;;;;;;;;;1.70;91.50;;;;;;5066309;28;19958;-70
2022/01/25 00:24:18;;;;;;;;;;;1.70;91.30;;;;;;5078857;28;19966;-70
2022/01/25 00:24:47;;;;;;;;;;;1.70;91.60;;;;;;5078155;28;20382;-70
2022/01/25 00:32:20;;;;;;;;;;;1.80;91.60;;;;;;5078167;28;19915;-70
2022/01/25 00:34:46;;;;;;;;;;;1.80;91.50;;;;;;5071307;28;19909;-70
2022/01/25 00:37:11;;;;;;;;;;;1.80;91.30;;;;;;5071309;28;20356;-70
2022/01/25 00:39:38;;;;;;;;;;;1.80;91.20;;;;;;5078085;28;20291;-70
2022/01/25 00:42:05;;;;;;;;;;;1.80;91.10;;;;;;5077985;28;19921;-70
2022/01/25 00:44:35;;;;;;;;;;;1.80;91.10;;;;;;5078249;28;19916;-70
2022/01/25 00:47:01;;;;;;;;;;;1.80;91.20;;;;;;5077977;28;20322;-70
2022/01/25 00:49:29;;;;;;;;;;;1.80;91.10;;;;;;5078334;28;19908;-70
2022/01/25 00:56:53;;;;;;;;;;;1.80;91.10;;;;;;5077842;28;19915;-70
2022/01/25 00:59:23;;;;;;;;;;;1.80;91.10;;;;;;5076740;28;19908;-70
2022/01/25 01:01:50;;;;;;;;;;;1.80;91.10;;;;;;5076781;28;19916;-70
2022/01/25 01:04:18;;;;;;;;;;;1.80;91.20;;;;;;5077827;28;19909;-70
2022/01/25 01:06:45;;;;;;;;;;;1.80;91.30;;;;;;5064014;28;20398;-70
2022/01/25 01:09:11;;;;;;;;;;;1.80;91.40;;;;;;5078118;28;19908;-70
2022/01/25 01:11:45;;;;;;;;;;;1.80;91.50;;;;;;5077921;28;19908;-70
2022/01/25 01:14:21;;;;;;;;;;;1.80;91.50;;;;;;5077866;28;19908;-70
2022/01/25 01:30:49;;;;;;;;;;;1.90;91.10;;;;;;5081814;28;19916;-70
2022/01/25 01:43:54;;;;;;;;;;;1.90;91.30;;;;;;5081235;28;19916;-71
2022/01/25 01:46:39;;;;;;;;;;;1.90;91.00;;;;;;5078883;28;20283;-70
2022/01/25 01:49:06;;;;;;;;;;;1.90;91.40;;;;;;5079146;28;20272;-71
2022/01/25 01:51:36;;;;;;;;;;;1.90;91.20;;;;;;5081318;28;19916;-70
2022/01/25 01:54:06;;;;;;;;;;;1.90;91.20;;;;;;5081006;28;19908;-71
2022/01/25 01:56:32;;;;;;;;;;;1.90;91.10;;;;;;5081086;28;19908;-71
2022/01/25 01:58:59;;;;;;;;;;;1.90;91.20;;;;;;5081269;28;19970;-71
2022/01/25 02:01:25;;;;;;;;;;;1.80;91.20;;;;;;5081217;28;19920;-71
2022/01/25 02:03:52;;;;;;;;;;;1.80;91.10;;;;;;5081025;28;19915;-71
2022/01/25 02:06:17;;;;;;;;;;;1.90;91.00;;;;;;5071842;28;19912;-71
2022/01/25 02:08:43;;;;;;;;;;;1.90;91.00;;;;;;5080818;28;19915;-71
2022/01/25 02:11:09;;;;;;;;;;;1.90;91.20;;;;;;5080822;28;19908;-70
2022/01/25 02:13:37;;;;;;;;;;;1.90;91.30;;;;;;5080764;28;19915;-71
2022/01/25 02:16:06;;;;;;;;;;;1.90;91.30;;;;;;5080802;28;19915;-71
2022/01/25 02:24:01;;;;;;;;;;;1.90;91.10;;;;;;5080805;28;19962;-71
2022/01/25 02:26:26;;;;;;;;;;;1.90;91.00;;;;;;5080489;28;19912;-71
2022/01/25 02:28:52;;;;;;;;;;;1.90;91.00;;;;;;5080625;28;19908;-71
2022/01/25 02:31:17;;;;;;;;;;;1.90;91.10;;;;;;5080516;28;19915;-71
2022/01/25 02:33:43;;;;;;;;;;;1.90;91.20;;;;;;5080610;28;19908;-71
2022/01/25 02:36:11;;;;;;;;;;;1.90;91.20;;;;;;5079577;28;19915;-71
2022/01/25 02:38:37;;;;;;;;;;;1.90;91.10;;;;;;5084813;28;20375;-71
2022/01/25 02:41:03;;;;;;;;;;;1.90;91.10;;;;;;5079636;28;19915;-71
2022/01/25 02:43:29;;;;;;;;;;;1.90;91.00;;;;;;5080087;28;19921;-71
2022/01/25 02:48:46;;;;;;;;;;;1.90;91.00;;;;;;5080242;28;19970;-70
2022/01/25 02:51:12;;;;;;;;;;;1.90;90.80;;;;;;5080098;28;19952;-70
2022/01/25 02:53:37;;;;;;;;;;;1.90;90.90;;;;;;5080125;28;19916;-70
2022/01/25 02:56:03;;;;;;;;;;;1.90;91.00;;;;;;5072103;28;19909;-71
2022/01/25 02:58:29;;;;;;;;;;;1.90;91.00;;;;;;5076096;28;19924;-71
2022/01/25 03:00:54;;;;;;;;;;;1.90;91.10;;;;;;5080583;28;19951;-71
2022/01/25 03:03:20;;;;;;;;;;;1.90;91.20;;;;;;5080003;28;20000;-72
2022/01/25 03:05:46;;;;;;;;;;;1.90;91.30;;;;;;5075049;28;19952;-71
2022/01/25 03:08:13;;;;;;;;;;;1.80;91.30;;;;;;5073689;28;19974;-71
2022/01/25 03:10:41;;;;;;;;;;;1.80;91.40;;;;;;5080017;28;19908;-71
2022/01/25 03:13:13;;;;;;;;;;;1.80;91.30;;;;;;5079965;28;19909;-71
2022/01/25 03:18:25;;;;;;;;;;;1.70;91.50;;;;;;5079927;28;19915;-71
2022/01/25 03:21:00;;;;;;;;;;;1.70;91.60;;;;;;5079553;28;20003;-71
2022/01/25 03:23:28;;;;;;;;;;;1.70;91.60;;;;;;5079561;28;20352;-70
2022/01/25 03:25:54;;;;;;;;;;;1.70;91.70;;;;;;5079642;28;19944;-70
2022/01/25 03:28:20;;;;;;;;;;;1.70;91.80;;;;;;5079865;28;19916;-70
2022/01/25 03:30:46;;;;;;;;;;;1.60;91.90;;;;;;5079502;28;19909;-70
2022/01/25 03:33:12;;;;;;;;;;;1.70;92.20;;;;;;5078140;28;19909;-70
2022/01/25 03:35:38;;;;;;;;;;;1.70;92.10;;;;;;5078885;28;19963;-71
2022/01/25 03:38:03;;;;;;;;;;;1.60;92.00;;;;;;5079838;28;19913;-71
2022/01/25 03:40:29;;;;;;;;;;;1.60;91.90;;;;;;5077893;28;19909;-71
2022/01/25 03:42:55;;;;;;;;;;;1.60;91.90;;;;;;5079313;28;19924;-70
2022/01/25 03:45:28;;;;;;;;;;;1.70;92.00;;;;;;5079175;28;19920;-70
2022/01/25 03:49:47;;;;;;;;;;;1.60;91.80;;;;;;5079114;28;19912;-71
2022/01/25 03:50:43;;;;;;;;;;;1.70;91.80;;;;;;5078716;28;19909;-71
2022/01/25 03:53:10;;;;;;;;;;;1.70;91.80;;;;;;5079149;28;19915;-71
2022/01/25 03:55:36;;;;;;;;;;;1.70;91.90;;;;;;5078840;28;19915;-71
2022/01/25 03:58:01;;;;;;;;;;;1.70;91.80;;;;;;5079305;28;19909;-71
2022/01/25 04:00:27;;;;;;;;;;;1.70;91.70;;;;;;5077508;28;20049;-71
2022/01/25 04:03:01;;;;;;;;;;;1.70;91.50;;;;;;5077600;28;19970;-71
2022/01/25 04:05:37;;;;;;;;;;;1.80;91.50;;;;;;5060972;28;19913;-71
2022/01/25 04:08:03;;;;;;;;;;;1.80;91.60;;;;;;5071563;28;20003;-71
2022/01/25 04:10:29;;;;;;;;;;;1.80;91.60;;;;;;5078677;28;19909;-71
2022/01/25 04:12:55;;;;;;;;;;;1.80;91.50;;;;;;5077628;28;19958;-71
2022/01/25 04:15:20;;;;;;;;;;;1.80;91.50;;;;;;5078681;28;19916;-71
2022/01/25 04:17:51;;;;;;;;;;;1.80;91.50;;;;;;5078776;28;19954;-71
2022/01/25 04:20:25;;;;;;;;;;;1.80;91.40;;;;;;5069725;28;19962;-71
2022/01/25 04:25:35;;;;;;;;;;;1.80;91.40;;;;;;5078472;28;19965;-71
2022/01/25 04:28:00;;;;;;;;;;;1.80;91.40;;;;;;5078354;28;19913;-71
2022/01/25 04:30:26;;;;;;;;;;;1.80;91.50;;;;;;5078435;28;19915;-71
2022/01/25 04:33:02;;;;;;;;;;;1.80;91.50;;;;;;5078196;28;19915;-71
2022/01/25 04:35:54;;;;;;;;;;;1.80;91.50;;;;;;5077546;28;20057;-71
2022/01/25 04:49:16;;;;;;;;;;;1.90;91.50;;;;;;5078264;28;19932;-71
2022/01/25 04:54:35;;;;;;;;;;;1.90;91.70;;;;;;5078128;28;19916;-71
2022/01/25 04:59:45;;;;;;;;;;;1.80;91.20;;;;;;5077630;28;20426;-71
2022/01/25 05:02:28;;;;;;;;;;;1.90;91.20;;;;;;5077805;28;19978;-70
2022/01/25 05:05:00;;;;;;;;;;;1.90;91.50;;;;;;5077540;28;19912;-71
2022/01/25 05:09:54;;;;;;;;;;;1.90;92.00;;;;;;5078012;28;19908;-71
2022/01/25 05:12:31;;;;;;;;;;;1.90;91.90;;;;;;5077950;28;19912;-71
2022/01/25 05:15:01;;;;;;;;;;;1.90;91.60;;;;;;5077711;28;20587;-71
2022/01/25 05:17:37;;;;;;;;;;;1.90;91.30;;;;;;5077836;28;19909;-71
2022/01/25 05:22:48;;;;;;;;;;;1.80;91.00;;;;;;5077616;28;20279;-70
2022/01/25 05:25:13;;;;;;;;;;;1.90;91.10;;;;;;5077634;28;19920;-71
2022/01/25 05:27:39;;;;;;;;;;;1.80;91.20;;;;;;5077814;28;19909;-70
2022/01/25 05:30:05;;;;;;;;;;;1.80;91.40;;;;;;5076508;28;19916;-71
2022/01/25 05:32:32;;;;;;;;;;;1.90;91.70;;;;;;5077480;28;19908;-71
2022/01/25 05:34:58;;;;;;;;;;;1.80;91.50;;;;;;5076695;28;20345;-71
2022/01/25 05:37:24;;;;;;;;;;;1.80;91.30;;;;;;5077585;28;19943;-71
2022/01/25 05:39:51;;;;;;;;;;;1.80;91.10;;;;;;5077693;28;19962;-71
2022/01/25 05:42:47;;;;;;;;;;;1.80;91.00;;;;;;5077396;28;19928;-70
2022/01/25 05:45:20;;;;;;;;;;;1.80;91.10;;;;;;5077643;28;19967;-71
2022/01/25 05:47:46;;;;;;;;;;;1.80;91.10;;;;;;5064308;28;19908;-71
2022/01/25 05:50:13;;;;;;;;;;;1.70;91.20;;;;;;5077399;28;19908;-70
2022/01/25 05:52:39;;;;;;;;;;;1.80;91.30;;;;;;5077476;28;19909;-70
2022/01/25 05:55:05;;;;;;;;;;;1.70;91.40;;;;;;5077441;28;19913;-71
2022/01/25 05:57:31;;;;;;;;;;;1.70;91.30;;;;;;5077529;28;19908;-71
2022/01/25 05:59:57;;;;;;;;;;;1.70;91.20;;;;;;5077428;28;20001;-71
2022/01/25 06:02:26;;;;;;;;;;;1.70;91.00;;;;;;5077578;28;19916;-71
2022/01/25 06:04:52;;;;;;;;;;;1.70;90.90;;;;;;5077047;28;20011;-71
2022/01/25 06:07:18;;;;;;;;;;;1.70;91.00;;;;;;5063986;28;19999;-69
2022/01/25 06:09:43;;;;;;;;;;;1.70;91.10;;;;;;5077441;28;19966;-71
2022/01/25 06:12:10;;;;;;;;;;;1.70;90.80;;;;;;5080399;28;19915;-70
2022/01/25 06:14:37;;;;;;;;;;;1.70;90.90;;;;;;5080992;28;19969;-69
2022/01/25 06:17:03;;;;;;;;;;;1.70;90.90;;;;;;5067818;28;19995;-71
2022/01/25 06:19:29;;;;;;;;;;;1.70;90.80;;;;;;5080797;28;19916;-71
2022/01/25 06:21:54;;;;;;;;;;;1.60;90.60;;;;;;5080673;28;20015;-71
2022/01/25 06:24:20;;;;;;;;;;;1.60;90.60;;;;;;5080550;28;19915;-71
2022/01/25 06:26:45;;;;;;;;;;;1.50;90.50;;;;;;5080894;28;20003;-68
2022/01/25 06:29:15;;;;;;;;;;;1.50;90.60;;;;;;5080522;28;19954;-68
2022/01/25 06:31:41;;;;;;;;;;;1.50;90.60;;;;;;5080842;28;19948;-69
2022/01/25 06:34:07;;;;;;;;;;;1.40;90.60;;;;;;5079839;28;20390;-70
2022/01/25 06:36:32;;;;;;;;;;;1.40;90.70;;;;;;5079075;28;19908;-71
2022/01/25 06:38:59;;;;;;;;;;;1.40;90.70;;;;;;5080354;28;19960;-69
2022/01/25 06:41:25;;;;;;;;;;;1.40;90.60;;;;;;5080233;28;20368;-69
2022/01/25 06:43:51;;;;;;;;;;;1.30;90.60;;;;;;5080897;28;19916;-70
2022/01/25 06:46:16;;;;;;;;;;;1.40;90.80;;;;;;5080540;28;19934;-69
2022/01/25 06:48:42;;;;;;;;;;;1.40;91.00;;;;;;5080081;28;19940;-71
2022/01/25 06:51:07;;;;;;;;;;;1.40;90.80;;;;;;5080233;28;19947;-69
2022/01/25 06:53:33;;;;;;;;;;;1.40;90.60;;;;;;5079774;28;19916;-71
2022/01/25 06:55:59;;;;;;;;;;;1.40;90.50;;;;;;5080300;28;19908;-70
2022/01/25 06:58:24;;;;;;;;;;;1.40;90.50;;;;;;5080110;28;19948;-70
2022/01/25 07:00:50;;;;;;;;;;;1.40;90.40;;;;;;5080344;28;19908;-69
2022/01/25 07:03:17;;;;;;;;;;;1.40;90.50;;;;;;5079996;28;19908;-71
2022/01/25 07:05:42;;;;;;;;;;;1.40;90.40;;;;;;5073164;28;19917;-70
2022/01/25 07:08:08;;;;;;;;;;;1.40;90.40;;;;;;5073472;28;19915;-71
2022/01/25 07:10:34;;;;;;;;;;;1.40;90.40;;;;;;5079973;28;20375;-70
2022/01/25 07:12:59;;;;;;;;;;;1.40;90.40;;;;;;5079866;28;19909;-70
2022/01/25 07:15:25;;;;;;;;;;;1.40;90.30;;;;;;5079984;28;19912;-70
2022/01/25 07:17:51;;;;;;;;;;;1.40;90.50;;;;;;5079784;28;19909;-71
2022/01/25 07:20:16;;;;;;;;;;;1.50;90.50;;;;;;5078254;28;19948;-69
2022/01/25 07:22:43;;;;;;;;;;;1.50;90.70;;;;;;5078802;28;19947;-71
2022/01/25 07:25:10;;;;;;;;;;;1.50;90.60;;;;;;5079573;28;19994;-71
2022/01/25 07:27:36;;;;;;;;;;;1.50;90.50;;;;;;5079596;28;19913;-71
2022/01/25 07:30:02;;;;;;;;;;;1.50;90.50;;;;;;5079679;28;19912;-71
2022/01/25 07:32:28;;;;;;;;;;;1.50;90.50;;;;;;5079323;28;19952;-71
2022/01/25 07:34:53;;;;;;;;;;;1.40;90.50;;;;;;5079036;28;19913;-71
2022/01/25 07:37:19;;;;;;;;;;;1.40;90.60;;;;;;5079385;28;19916;-70
2022/01/25 07:39:45;;;;;;;;;;;1.40;90.70;;;;;;5079621;28;20371;-71
2022/01/25 07:42:11;;;;;;;;;;;1.40;90.80;;;;;;5079239;28;20437;-70
2022/01/25 07:44:38;;;;;;;;;;;1.40;90.90;;;;;;5079384;28;19944;-71
2022/01/25 07:47:05;;;;;;;;;;;1.50;91.00;;;;;;5079142;28;19908;-70
2022/01/25 07:49:30;;;;;;;;;;;1.40;90.80;;;;;;5079326;28;19999;-70
2022/01/25 07:51:57;;;;;;;;;;;1.40;90.80;;;;;;5078891;28;19940;-71
2022/01/25 07:54:23;;;;;;;;;;;1.40;90.80;;;;;;5078978;28;19915;-71
2022/01/25 07:56:49;;;;;;;;;;;1.40;90.80;;;;;;5078929;28;19909;-71
2022/01/25 07:59:15;;;;;;;;;;;1.40;90.80;;;;;;5079128;28;19935;-70
2022/01/25 08:01:41;;;;;;;;;;;1.40;90.80;;;;;;5077515;28;19908;-71
2022/01/25 08:04:10;;;;;;;;;;;1.40;90.70;;;;;;5079020;28;19909;-70
2022/01/25 08:06:36;;;;;;;;;;;1.40;90.70;;;;;;5064900;28;19963;-71
2022/01/25 08:09:02;;;;;;;;;;;1.40;90.70;;;;;;5078831;28;19908;-71
2022/01/25 08:11:28;;;;;;;;;;;1.50;90.70;;;;;;5078664;28;19913;-71
2022/01/25 08:14:00;;;;;;;;;;;1.50;90.70;;;;;;5078894;28;19916;-70
2022/01/25 08:16:26;;;;;;;;;;;1.50;91.00;;;;;;5078465;28;19944;-71
2022/01/25 08:18:52;;;;;;;;;;;1.50;90.90;;;;;;5078700;28;19908;-71
2022/01/25 08:21:17;;;;;;;;;;;1.50;90.80;;;;;;5078104;28;19908;-71
2022/01/25 08:23:43;;;;;;;;;;;1.50;90.80;;;;;;5078425;28;19916;-72
2022/01/25 08:26:09;;;;;;;;;;;1.50;90.90;;;;;;5078354;28;19913;-71
2022/01/25 08:28:34;;;;;;;;;;;1.50;91.10;;;;;;5078764;28;19909;-71
2022/01/25 08:31:00;;;;;;;;;;;1.60;91.20;;;;;;5078295;28;20011;-71
2022/01/25 08:33:26;;;;;;;;;;;1.60;91.10;;;;;;5078190;28;19909;-71
2022/01/25 08:35:51;;;;;;;;;;;1.60;91.00;;;;;;5076826;28;20001;-71
2022/01/25 08:38:17;;;;;;;;;;;1.60;91.20;;;;;;5078501;28;19955;-71
2022/01/25 08:40:43;;;;;;;;;;;1.60;91.30;;;;;;5078023;28;19908;-71
2022/01/25 08:43:08;;;;;;;;;;;1.60;91.10;;;;;;5078058;28;19920;-71
2022/01/25 08:45:34;;;;;;;;;;;1.60;91.00;;;;;;5076686;28;19913;-71
2022/01/25 08:48:00;;;;;;;;;;;1.60;90.90;;;;;;5078284;28;19954;-71
2022/01/25 08:50:26;;;;;;;;;;;1.60;90.90;;;;;;5077767;28;19913;-71
2022/01/25 08:52:52;;;;;;;;;;;1.60;90.90;;;;;;5076738;28;19915;-71
2022/01/25 08:55:17;;;;;;;;;;;1.50;90.90;;;;;;5076484;28;19908;-71
2022/01/25 08:57:43;;;;;;;;;;;1.50;90.90;;;;;;5077074;28;19908;-71
2022/01/25 09:00:10;;;;;;;;;;;1.50;90.90;;;;;;5076939;28;19908;-71
2022/01/25 09:02:36;;;;;;;;;;;1.60;90.90;;;;;;5078119;28;19916;-71
2022/01/25 09:05:03;;;;;;;;;;;1.50;90.90;;;;;;5074972;28;19981;-71
2022/01/25 09:07:28;;;;;;;;;;;1.60;90.90;;;;;;5065959;28;19955;-71
2022/01/25 09:09:54;;;;;;;;;;;1.50;91.20;;;;;;5077785;28;19913;-71
2022/01/25 09:12:20;;;;;;;;;;;1.50;90.90;;;;;;5078043;28;19916;-72
2022/01/25 09:14:45;;;;;;;;;;;1.60;91.00;;;;;;5077798;28;19912;-71
2022/01/25 09:17:11;;;;;;;;;;;1.60;91.00;;;;;;5077915;28;19977;-71
2022/01/25 09:19:38;;;;;;;;;;;1.60;91.00;;;;;;5077400;28;20341;-72
2022/01/25 09:22:05;;;;;;;;;;;1.60;91.00;;;;;;5077914;28;19912;-71
2022/01/25 09:24:30;;;;;;;;;;;1.60;91.00;;;;;;5077600;28;19972;-71
2022/01/25 09:26:56;;;;;;;;;;;1.60;91.10;;;;;;5077697;28;20359;-72
2022/01/25 09:29:22;;;;;;;;;;;1.60;91.10;;;;;;5077487;28;19947;-71
2022/01/25 09:31:47;;;;;;;;;;;1.60;91.10;;;;;;5076596;28;19908;-71
2022/01/25 09:34:15;;;;;;;;;;;1.70;91.10;;;;;;5073926;28;19909;-71
2022/01/25 09:36:41;;;;;;;;;;;1.70;91.20;;;;;;5066665;28;19916;-72
2022/01/25 09:39:07;;;;;;;;;;;1.70;91.30;;;;;;5076286;28;19908;-72
2022/01/25 09:41:32;;;;;;;;;;;1.70;91.30;;;;;;5077673;28;19909;-72
2022/01/25 09:43:58;;;;;;;;;;;1.60;91.30;;;;;;5077477;28;19912;-71
2022/01/25 09:46:24;;;;;;;;;;;1.60;91.40;;;;;;5079676;28;20275;-71
2022/01/25 09:48:51;;;;;;;;;;;1.60;91.40;;;;;;5080026;28;20333;-72
2022/01/25 09:51:18;;;;;;;;;;;1.70;91.40;;;;;;5080179;28;19908;-72
2022/01/25 09:53:44;;;;;;;;;;;1.70;91.50;;;;;;5081291;28;19938;-72
2022/01/25 09:56:10;;;;;;;;;;;1.70;91.50;;;;;;5081478;28;19955;-71
2022/01/25 09:58:36;;;;;;;;;;;1.80;91.50;;;;;;5081248;28;19916;-72
2022/01/25 10:01:02;;;;;;;;;;;1.80;91.60;;;;;;5081377;28;19908;-72
2022/01/25 10:03:34;;;;;;;;;;;1.80;91.50;;;;;;5080669;28;19912;-72
2022/01/25 10:06:01;;;;;;;;;;;1.80;91.50;;;;;;5071183;28;19912;-72
2022/01/25 10:08:32;;;;;;;;;;;1.90;91.50;;;;;;5076930;28;19908;-72
2022/01/25 10:10:59;;;;;;;;;;;1.90;91.50;;;;;;5079736;28;19909;-72
2022/01/25 10:13:26;;;;;;;;;;;1.90;91.60;;;;;;5080930;28;20390;-72
2022/01/25 10:15:57;;;;;;;;;;;1.90;91.60;;;;;;5081275;28;20316;-72
2022/01/25 10:18:22;;;;;;;;;;;1.90;91.60;;;;;;5079902;28;19916;-72
2022/01/25 10:20:50;;;;;;;;;;;2.00;91.70;;;;;;5080590;28;19909;-72
2022/01/25 10:23:22;;;;;;;;;;;2.00;91.70;;;;;;5080880;28;19912;-72
2022/01/25 10:25:48;;;;;;;;;;;2.00;91.70;;;;;;5081009;28;20275;-72
2022/01/25 10:28:14;;;;;;;;;;;2.00;91.70;;;;;;5080685;28;19908;-72
2022/01/25 10:30:50;;;;;;;;;;;2.00;91.70;;;;;;5080760;28;19909;-72
2022/01/25 10:33:17;;;;;;;;;;;2.00;91.80;;;;;;5073816;28;19986;-72
2022/01/25 10:35:42;;;;;;;;;;;2.00;91.80;;;;;;5079929;28;19908;-72
2022/01/25 10:38:19;;;;;;;;;;;2.00;91.80;;;;;;5080813;28;19915;-72
2022/01/25 10:40:52;;;;;;;;;;;2.00;91.90;;;;;;5080407;28;19951;-72
2022/01/25 10:43:20;;;;;;;;;;;2.10;91.90;;;;;;5080051;28;19921;-72
2022/01/25 10:45:45;;;;;;;;;;;2.10;91.90;;;;;;5080315;28;20333;-73
2022/01/25 10:48:14;;;;;;;;;;;2.10;91.90;;;;;;5079123;28;19987;-74
2022/01/25 10:50:42;;;;;;;;;;;2.10;91.80;;;;;;5078900;28;20061;-73
2022/01/25 10:53:12;;;;;;;;;;;2.20;91.80;;;;;;5079007;28;19931;-73
2022/01/25 10:55:40;;;;;;;;;;;2.20;91.80;;;;;;5080056;28;20454;-73
2022/01/25 10:58:07;;;;;;;;;;;2.30;91.80;;;;;;5077804;28;19916;-72
2022/01/25 11:00:34;;;;;;;;;;;2.30;91.70;;;;;;5078995;28;20344;-72
2022/01/25 11:03:01;;;;;;;;;;;2.30;91.70;;;;;;5080174;28;20366;-72
2022/01/25 11:05:30;;;;;;;;;;;2.40;91.80;;;;;;5062026;28;19999;-72
2022/01/25 11:07:55;;;;;;;;;;;2.40;91.70;;;;;;5072121;28;20321;-72
2022/01/25 11:10:22;;;;;;;;;;;2.50;91.80;;;;;;5080044;28;19915;-72
2022/01/25 11:13:07;;;;;;;;;;;2.50;91.70;;;;;;5079989;28;20045;-72
2022/01/25 11:15:32;;;;;;;;;;;2.60;91.70;;;;;;5067849;28;20367;-72
2022/01/25 11:17:58;;;;;;;;;;;2.60;91.70;;;;;;5078431;28;19991;-72
2022/01/25 11:20:24;;;;;;;;;;;2.60;91.70;;;;;;5079636;28;19908;-72
2022/01/25 11:22:49;;;;;;;;;;;2.60;91.70;;;;;;5078596;28;19909;-72
2022/01/25 11:25:18;;;;;;;;;;;2.60;91.80;;;;;;5079665;28;19947;-72
2022/01/25 11:27:44;;;;;;;;;;;2.60;91.80;;;;;;5079624;28;20287;-72
2022/01/25 11:30:11;;;;;;;;;;;2.60;91.90;;;;;;5079793;28;19915;-72
2022/01/25 11:32:48;;;;;;;;;;;2.60;91.90;;;;;;5078013;28;20378;-72
2022/01/25 11:35:15;;;;;;;;;;;2.70;91.90;;;;;;5067138;28;20360;-72
2022/01/25 11:37:45;;;;;;;;;;;2.70;91.90;;;;;;5076911;28;19909;-72
2022/01/25 11:40:26;;;;;;;;;;;2.70;91.90;;;;;;5079529;28;19908;-72
2022/01/25 11:42:55;;;;;;;;;;;2.70;91.80;;;;;;5066390;28;19924;-73
2022/01/25 11:45:24;;;;;;;;;;;2.70;91.90;;;;;;5079093;28;19913;-72
2022/01/25 11:47:51;;;;;;;;;;;2.70;91.80;;;;;;5079423;28;19909;-74
2022/01/25 11:50:18;;;;;;;;;;;2.70;91.80;;;;;;5078993;28;20355;-73
2022/01/25 11:52:54;;;;;;;;;;;2.80;91.90;;;;;;5078165;28;19962;-74
2022/01/25 11:55:22;;;;;;;;;;;2.80;91.90;;;;;;5077762;28;19909;-73
2022/01/25 11:57:49;;;;;;;;;;;2.80;91.80;;;;;;5078258;28;19944;-75
2022/01/25 12:00:15;;;;;;;;;;;2.80;91.90;;;;;;5078889;28;19909;-75
2022/01/25 12:02:43;;;;;;;;;;;2.90;91.90;;;;;;5077711;28;19962;-71
2022/01/25 12:05:10;;;;;;;;;;;2.90;91.80;;;;;;5076339;28;19912;-73
2022/01/25 12:07:41;;;;;;;;;;;2.90;91.80;;;;;;5068060;28;19915;-72
2022/01/25 12:10:25;;;;;;;;;;;3.00;91.80;;;;;;5078260;28;19916;-71
2022/01/25 12:13:10;;;;;;;;;;;3.00;91.90;;;;;;5078737;28;19908;-72
2022/01/25 12:15:35;;;;;;;;;;;3.00;91.90;;;;;;5067036;28;19909;-71
2022/01/25 12:18:02;;;;;;;;;;;3.00;91.90;;;;;;5078674;28;20406;-71
2022/01/25 12:20:28;;;;;;;;;;;3.00;92.00;;;;;;5078383;28;19912;-72
2022/01/25 12:23:10;;;;;;;;;;;3.10;92.00;;;;;;5077382;28;19915;-72
2022/01/25 12:25:49;;;;;;;;;;;3.10;92.00;;;;;;5078323;28;20283;-71
2022/01/25 12:28:27;;;;;;;;;;;3.10;91.90;;;;;;5078372;28;19909;-72
2022/01/25 12:30:53;;;;;;;;;;;3.10;91.90;;;;;;5078446;28;19909;-71
2022/01/25 12:33:20;;;;;;;;;;;3.10;91.90;;;;;;5076975;28;20013;-72
2022/01/25 12:36:02;;;;;;;;;;;3.20;91.90;;;;;;5077715;28;19994;-72
2022/01/25 12:38:31;;;;;;;;;;;3.20;91.80;;;;;;5078609;28;19995;-72
2022/01/25 12:41:09;;;;;;;;;;;3.20;91.90;;;;;;5078073;28;19909;-71
2022/01/25 12:43:38;;;;;;;;;;;3.20;91.80;;;;;;5076775;28;19994;-71
2022/01/25 12:46:07;;;;;;;;;;;3.30;91.80;;;;;;5078182;28;19962;-71
2022/01/25 12:48:36;;;;;;;;;;;3.30;91.80;;;;;;5076397;28;20198;-70
2022/01/25 12:51:04;;;;;;;;;;;3.30;91.80;;;;;;5078060;28;19908;-70
2022/01/25 12:53:32;;;;;;;;;;;3.30;91.80;;;;;;5077905;28;19932;-71
2022/01/25 12:55:59;;;;;;;;;;;3.30;91.90;;;;;;5078142;28;19999;-71
2022/01/25 12:58:27;;;;;;;;;;;3.30;91.90;;;;;;5077871;28;19908;-71
2022/01/25 13:00:54;;;;;;;;;;;3.30;91.90;;;;;;5078049;28;19908;-71
2022/01/25 13:03:20;;;;;;;;;;;3.30;91.90;;;;;;5077796;28;19908;-71
2022/01/25 13:06:06;;;;;;;;;;;3.30;91.90;;;;;;5070619;28;19924;-71
2022/01/25 13:08:56;;;;;;;;;;;3.40;91.90;;;;;;5074258;28;19916;-71
2022/01/25 13:11:37;;;;;;;;;;;3.40;91.90;;;;;;5077953;28;19908;-71
2022/01/25 13:16:55;;;;;;;;;;;3.40;91.90;;;;;;5077703;28;19916;-71
2022/01/25 13:19:25;;;;;;;;;;;3.50;91.90;;;;;;5077601;28;19913;-71
2022/01/25 13:22:00;;;;;;;;;;;3.50;91.80;;;;;;5076928;28;19909;-71
2022/01/25 13:24:30;;;;;;;;;;;3.50;91.80;;;;;;5077474;28;19926;-71
2022/01/25 13:27:00;;;;;;;;;;;3.60;91.80;;;;;;5077733;28;19913;-71
2022/01/25 13:32:17;;;;;;;;;;;3.70;91.70;;;;;;5077890;28;20279;-71
2022/01/25 13:34:43;;;;;;;;;;;3.70;91.70;;;;;;5076061;28;19966;-71
2022/01/25 13:37:19;;;;;;;;;;;3.70;91.70;;;;;;5077725;28;20330;-71
2022/01/25 13:39:52;;;;;;;;;;;3.70;91.70;;;;;;5064424;28;20295;-71
2022/01/25 13:42:22;;;;;;;;;;;3.70;91.70;;;;;;5077331;28;19920;-71
2022/01/25 13:47:56;;;;;;;;;;;3.80;91.90;;;;;;5064506;28;20290;-71
2022/01/25 13:50:22;;;;;;;;;;;3.70;91.70;;;;;;5077101;28;19962;-71
2022/01/25 13:52:50;;;;;;;;;;;3.80;91.70;;;;;;5077637;28;19908;-70
2022/01/25 13:55:16;;;;;;;;;;;3.80;91.60;;;;;;5077152;28;19913;-71
2022/01/25 13:57:41;;;;;;;;;;;3.80;91.60;;;;;;5077670;28;19913;-71
2022/01/25 14:00:07;;;;;;;;;;;3.80;91.60;;;;;;5077244;28;19913;-70
2022/01/25 14:02:33;;;;;;;;;;;3.80;91.60;;;;;;5077605;28;19930;-70
2022/01/25 14:04:59;;;;;;;;;;;3.80;91.60;;;;;;5076143;28;20371;-70
2022/01/25 14:07:25;;;;;;;;;;;3.80;91.60;;;;;;5063470;28;20004;-70
2022/01/25 14:09:54;;;;;;;;;;;3.80;91.60;;;;;;5077120;28;19956;-70
2022/01/25 14:23:21;;;;;;;;;;;3.80;91.70;;;;;;5077072;28;19946;-70
2022/01/25 14:25:48;;;;;;;;;;;3.80;91.60;;;;;;5069431;28;19912;-71
2022/01/25 14:28:16;;;;;;;;;;;3.80;91.60;;;;;;5069027;28;20003;-71
2022/01/25 14:30:46;;;;;;;;;;;3.80;91.70;;;;;;5067267;28;19909;-71
2022/01/25 14:33:14;;;;;;;;;;;3.80;91.60;;;;;;5070141;28;19908;-71
2022/01/25 14:35:41;;;;;;;;;;;3.80;91.50;;;;;;5052333;28;19916;-71
2022/01/25 14:38:13;;;;;;;;;;;3.80;91.50;;;;;;5070952;28;19916;-71
2022/01/25 14:40:39;;;;;;;;;;;3.80;91.50;;;;;;5068339;28;19908;-71
2022/01/25 14:43:05;;;;;;;;;;;3.80;91.50;;;;;;5071470;28;19920;-71
2022/01/25 14:45:31;;;;;;;;;;;3.80;91.50;;;;;;5070582;28;20389;-71
2022/01/25 14:47:58;;;;;;;;;;;3.80;91.40;;;;;;5069958;28;19908;-71
2022/01/25 14:50:25;;;;;;;;;;;3.90;91.40;;;;;;5078613;28;19916;-71
2022/01/25 14:53:02;;;;;;;;;;;3.80;91.50;;;;;;5080477;28;19908;-71
2022/01/25 14:55:28;;;;;;;;;;;3.80;91.50;;;;;;5080035;28;19920;-71
2022/01/25 15:00:44;;;;;;;;;;;3.80;91.50;;;;;;5067163;28;19916;-73
2022/01/25 15:03:10;;;;;;;;;;;3.80;91.50;;;;;;5079918;28;20260;-75
2022/01/25 15:05:35;;;;;;;;;;;3.80;91.50;;;;;;5075102;28;19940;-75
2022/01/25 15:08:01;;;;;;;;;;;3.80;91.60;;;;;;5072436;28;19962;-74
2022/01/25 15:10:31;;;;;;;;;;;3.80;91.70;;;;;;5079745;28;20440;-74
2022/01/25 15:12:57;;;;;;;;;;;3.80;91.60;;;;;;5079912;28;20383;-74
2022/01/25 15:15:28;;;;;;;;;;;3.80;91.70;;;;;;5066722;28;19931;-74
2022/01/25 15:17:54;;;;;;;;;;;3.80;91.70;;;;;;5079773;28;19962;-75
2022/01/25 15:20:20;;;;;;;;;;;3.80;91.70;;;;;;5079673;28;19908;-74
2022/01/25 15:22:47;;;;;;;;;;;3.70;91.60;;;;;;5078288;28;19919;-74
2022/01/25 15:25:20;;;;;;;;;;;3.70;91.70;;;;;;5079713;28;20367;-75
2022/01/25 15:27:45;;;;;;;;;;;3.70;91.60;;;;;;5079711;28;19999;-75
2022/01/25 15:30:12;;;;;;;;;;;3.70;91.70;;;;;;5079675;28;19955;-75
2022/01/25 15:32:38;;;;;;;;;;;3.70;91.70;;;;;;5077966;28;19908;-75
2022/01/25 15:35:05;;;;;;;;;;;3.70;91.60;;;;;;5069915;28;20367;-75
2022/01/25 15:37:30;;;;;;;;;;;3.70;91.60;;;;;;5074258;28;19995;-75
2022/01/25 15:39:56;;;;;;;;;;;3.80;91.70;;;;;;5079501;28;19952;-76
2022/01/25 15:42:24;;;;;;;;;;;3.80;91.70;;;;;;5079091;28;19931;-76
2022/01/25 15:44:52;;;;;;;;;;;3.70;91.70;;;;;;5078593;28;19909;-74
2022/01/25 15:47:19;;;;;;;;;;;3.70;91.60;;;;;;5078703;28;19938;-75
2022/01/25 15:49:45;;;;;;;;;;;3.80;91.70;;;;;;5078820;28;19908;-76
2022/01/25 15:52:11;;;;;;;;;;;3.70;91.60;;;;;;5078286;28;19997;-75
2022/01/25 15:54:37;;;;;;;;;;;3.70;91.60;;;;;;5078412;28;19908;-75
2022/01/25 15:57:04;;;;;;;;;;;3.70;91.50;;;;;;5078962;28;19908;-75
2022/01/25 15:59:29;;;;;;;;;;;3.80;91.50;;;;;;5078966;28;19909;-75
2022/01/25 16:01:57;;;;;;;;;;;3.80;91.50;;;;;;5077745;28;19943;-75
2022/01/25 16:04:24;;;;;;;;;;;3.80;91.50;;;;;;5078692;28;19915;-73
2022/01/25 16:06:50;;;;;;;;;;;3.80;91.40;;;;;;5076275;28;19912;-73
2022/01/25 16:09:16;;;;;;;;;;;3.80;91.40;;;;;;5078883;28;20398;-75
2022/01/25 16:11:41;;;;;;;;;;;3.80;91.40;;;;;;5078694;28;20384;-76
2022/01/25 16:14:07;;;;;;;;;;;3.80;91.40;;;;;;5078729;28;19931;-75
2022/01/25 16:16:33;;;;;;;;;;;3.80;91.50;;;;;;5078693;28;19934;-75
2022/01/25 16:18:59;;;;;;;;;;;3.80;91.40;;;;;;5077320;28;19930;-73
2022/01/25 16:21:24;;;;;;;;;;;3.80;91.40;;;;;;5076854;28;20351;-73
2022/01/25 16:23:50;;;;;;;;;;;3.80;91.40;;;;;;5078692;28;20322;-75
2022/01/25 16:26:17;;;;;;;;;;;3.90;91.40;;;;;;5077277;28;19916;-76